Time;durP1;ratioP1;P1;durP2;ratioP2;P2;SDS_P1;SDS_P2;PMS_P1;PMS_P2;Temp;Humidity;BMP_temperature;BMP_pressure;BME280_temperature;BME280_humidity;BME280_pressure;Samples;Min_cycle;Max_cycle;Signal;HPM_P1;HPM_P2
2023/05/10 00:01:26;;;;;;;3.83;2.67;;;;;;;17.57;56.91;100459.47;5031231;28;20528;-83
2023/05/10 00:04:15;;;;;;;3.20;2.35;;;;;;;17.28;57.38;100458.97;5043266;28;20075;-84
2023/05/10 00:07:10;;;;;;;3.03;2.45;;;;;;;17.26;58.04;100455.03;5041035;28;20056;-84
2023/05/10 00:10:02;;;;;;;3.15;2.42;;;;;;;17.17;58.12;100444.25;5042500;28;20048;-86
2023/05/10 00:12:57;;;;;;;3.30;2.70;;;;;;;17.01;58.86;100438.91;5028136;28;20048;-86
2023/05/10 00:15:51;;;;;;;6.38;3.08;;;;;;;17.09;58.39;100434.31;5029077;28;20056;-85
2023/05/10 00:18:43;;;;;;;4.15;3.10;;;;;;;17.16;59.07;100434.44;5076088;23;20520;-81
2023/05/10 00:21:38;;;;;;;5.47;4.00;;;;;;;17.09;59.10;100432.34;5039400;28;20048;-80
2023/05/10 00:24:32;;;;;;;3.30;2.70;;;;;;;17.21;59.42;100425.09;5043847;28;20040;-80
2023/05/10 00:27:27;;;;;;;8.77;4.28;;;;;;;17.34;59.14;100430.03;5042717;28;20047;-81
2023/05/10 00:30:19;;;;;;;4.28;3.55;;;;;;;17.31;59.73;100421.72;5020134;28;20405;-81
2023/05/10 00:33:14;;;;;;;5.72;3.90;;;;;;;17.34;59.26;100418.25;5035183;28;20065;-81
2023/05/10 00:36:09;;;;;;;3.53;2.42;;;;;;;17.33;59.46;100419.41;4998371;28;20045;-81
2023/05/10 00:39:03;;;;;;;5.25;3.20;;;;;;;17.41;59.08;100410.91;4986916;28;20053;-81
2023/05/10 00:41:57;;;;;;;4.63;3.45;;;;;;;17.32;58.49;100417.84;4999301;28;20409;-81
2023/05/10 00:44:52;;;;;;;5.40;3.17;;;;;;;17.33;58.27;100411.94;5016251;28;20527;-81
2023/05/10 00:47:47;;;;;;;4.05;3.00;;;;;;;17.36;57.62;100400.22;5017392;28;20049;-81
2023/05/10 00:50:42;;;;;;;8.77;2.90;;;;;;;17.36;58.18;100411.22;5001453;28;20049;-81
2023/05/10 00:53:38;;;;;;;4.03;2.08;;;;;;;17.41;58.31;100397.19;5002753;28;20045;-81
2023/05/10 00:56:33;;;;;;;6.18;2.05;;;;;;;17.47;57.05;100400.41;5013412;28;20042;-81
2023/05/10 00:59:28;;;;;;;2.63;2.30;;;;;;;17.45;56.17;100397.22;5014843;28;20041;-80
2023/05/10 01:02:20;;;;;;;;;;;;;;;17.24;55.83;100397.66;5004514;28;20057;-81
2023/05/10 01:05:15;;;;;;;2.78;1.63;;;;;;;17.21;54.41;100392.91;5028128;28;19917;-81
2023/05/10 01:08:10;;;;;;;3.45;1.60;;;;;;;17.36;53.77;100396.69;5011320;28;20049;-81
2023/05/10 01:11:02;;;;;;;2.40;1.30;;;;;;;17.34;53.97;100394.31;5035662;28;20052;-81
2023/05/10 01:14:00;;;;;;;2.42;1.70;;;;;;;17.35;54.21;100397.84;5017802;28;20064;-81
2023/05/10 01:16:53;;;;;;;2.80;1.63;;;;;;;17.19;53.96;100395.22;5000184;28;20057;-81
2023/05/10 01:19:47;;;;;;;3.35;1.65;;;;;;;17.08;54.18;100397.78;5020853;28;20049;-81
2023/05/10 01:23:05;;;;;;;1.67;1.40;;;;;;;16.98;54.77;100401.16;5023681;28;20053;-80
2023/05/10 01:26:15;;;;;;;2.38;1.58;;;;;;;17.23;54.53;100396.06;5005462;28;20049;-81
2023/05/10 01:29:16;;;;;;;1.60;1.15;;;;;;;17.14;54.64;100389.25;5023021;28;20045;-81
2023/05/10 01:32:29;;;;;;;7.65;1.60;;;;;;;17.10;54.54;100384.50;5008480;28;20049;-82
2023/05/10 01:35:40;;;;;;;2.45;1.40;;;;;;;17.17;53.58;100388.53;5008132;28;20516;-82
2023/05/10 01:38:49;;;;;;;1.60;1.20;;;;;;;17.09;54.16;100395.84;5021762;28;20057;-81
2023/05/10 01:41:51;;;;;;;2.47;1.25;;;;;;;17.01;54.09;100389.44;5019450;28;20405;-81
2023/05/10 01:44:45;;;;;;;3.92;1.10;;;;;;;16.98;54.22;100384.66;5019789;28;20048;-81
2023/05/10 01:47:43;;;;;;;1.30;0.98;;;;;;;17.11;53.94;100390.78;5011621;28;20079;-82
2023/05/10 01:50:39;;;;;;;2.25;1.33;;;;;;;17.12;53.53;100388.84;5017142;28;20050;-81
2023/05/10 01:53:35;;;;;;;3.28;1.23;;;;;;;17.10;53.97;100398.22;5025170;28;20045;-82
2023/05/10 01:56:31;;;;;;;1.25;0.98;;;;;;;16.98;52.68;100386.63;5008655;28;20049;-80
2023/05/10 01:59:30;;;;;;;3.47;1.63;;;;;;;17.02;53.47;100393.75;5008194;28;20536;-81
2023/05/10 02:02:24;;;;;;;5.45;1.40;;;;;;;17.11;53.07;100393.53;5024961;28;20053;-81
2023/05/10 02:05:15;;;;;;;1.67;1.27;;;;;;;17.06;53.28;100404.84;5034755;28;20409;-80
2023/05/10 02:08:11;;;;;;;2.92;1.20;;;;;;;16.87;53.83;100394.66;5002923;28;20422;-81
2023/05/10 02:11:07;;;;;;;1.73;1.10;;;;;;;16.63;54.62;100406.00;5003731;28;20054;-81
2023/05/10 02:14:00;;;;;;;4.30;1.83;;;;;;;16.53;54.92;100401.06;5008735;28;20080;-81
2023/05/10 02:16:55;;;;;;;2.47;1.05;;;;;;;16.48;55.94;100410.38;5011851;28;20049;-81
2023/05/10 02:19:49;;;;;;;1.08;0.85;;;;;;;16.48;55.96;100412.34;4999288;28;20045;-80
2023/05/10 02:22:45;;;;;;;5.35;1.55;;;;;;;16.52;56.17;100404.97;4987275;28;20045;-80
2023/05/10 02:25:37;;;;;;;4.68;1.35;;;;;;;16.38;56.62;100412.91;5017918;28;20053;-82
2023/05/10 02:28:33;;;;;;;1.30;1.10;;;;;;;16.40;56.58;100408.66;5009938;28;20045;-82
2023/05/10 02:31:26;;;;;;;3.40;1.40;;;;;;;16.24;57.26;100407.94;5016566;28;20068;-82
2023/05/10 02:34:19;;;;;;;1.60;1.48;;;;;;;16.23;58.19;100409.88;5019433;28;20049;-80
2023/05/10 02:37:15;;;;;;;4.00;1.40;;;;;;;16.30;58.07;100409.25;5009226;28;20404;-80
2023/05/10 02:40:12;;;;;;;7.30;1.67;;;;;;;16.22;58.81;100405.56;5011585;28;20069;-80
2023/05/10 02:43:09;;;;;;;2.88;1.65;;;;;;;16.13;60.17;100406.91;5008159;28;20583;-80
2023/05/10 02:46:04;;;;;;;2.67;1.80;;;;;;;16.14;60.33;100411.25;5016223;28;20045;-81
2023/05/10 02:49:00;;;;;;;2.30;1.48;;;;;;;15.89;61.64;100415.41;5016039;28;20053;-81
2023/05/10 02:51:58;;;;;;;1.83;1.10;;;;;;;15.74;61.97;100411.56;5014954;28;20053;-80
2023/05/10 02:54:54;;;;;;;3.17;1.20;;;;;;;15.61;62.75;100407.31;5019998;28;20413;-80
2023/05/10 02:57:48;;;;;;;2.35;1.77;;;;;;;15.75;63.20;100407.63;4998472;28;20065;-81
2023/05/10 03:00:40;;;;;;;4.45;1.90;;;;;;;15.56;64.59;100402.91;5016435;28;20053;-80
2023/05/10 03:03:35;;;;;;;2.65;1.58;;;;;;;15.32;65.36;100406.63;5016277;28;20053;-80
2023/05/10 03:06:27;;;;;;;3.33;1.67;;;;;;;15.14;66.54;100407.31;5018166;28;20061;-81
2023/05/10 03:09:21;;;;;;;3.90;1.90;;;;;;;15.20;66.92;100405.91;5014234;28;20312;-81
2023/05/10 03:12:49;;;;;;;2.03;1.65;;;;;;;15.25;66.91;100405.63;5031935;28;20420;-81
2023/05/10 03:16:10;;;;;;;5.97;2.20;;;;;;;15.27;66.89;100401.41;5016913;28;20113;-79
2023/05/10 03:19:14;;;;;;;5.57;1.80;;;;;;;15.14;67.13;100391.69;5014314;28;20052;-81
2023/05/10 03:22:08;;;;;;;3.78;1.40;;;;;;;15.10;67.38;100401.75;5012654;28;20401;-81
2023/05/10 03:25:06;;;;;;;2.00;1.58;;;;;;;14.98;67.55;100399.13;5018047;28;20049;-81
2023/05/10 03:28:03;;;;;;;3.65;1.90;;;;;;;14.91;68.19;100393.44;5006374;28;20045;-81
2023/05/10 03:30:58;;;;;;;9.27;3.97;;;;;;;14.85;69.19;100394.84;5010669;28;20050;-79
2023/05/10 03:33:56;;;;;;;2.90;1.70;;;;;;;14.80;69.23;100386.88;5018155;28;20045;-81
2023/05/10 03:36:51;;;;;;;3.25;1.80;;;;;;;15.01;68.56;100381.97;5021158;28;20803;-80
2023/05/10 03:39:46;;;;;;;4.60;2.45;;;;;;;14.81;69.67;100385.75;5015863;28;20053;-80
2023/05/10 03:42:40;;;;;;;2.15;1.02;;;;;;;14.83;70.11;100378.00;5009144;28;20520;-80
2023/05/10 03:45:35;;;;;;;3.28;2.45;;;;;;;14.75;70.27;100378.94;4997111;28;20042;-80
2023/05/10 03:48:30;;;;;;;2.78;1.83;;;;;;;14.61;71.49;100378.56;4996388;28;20066;-79
2023/05/10 03:51:25;;;;;;;3.67;1.98;;;;;;;14.69;71.08;100372.13;5014761;28;20517;-80
2023/05/10 03:54:19;;;;;;;3.33;2.22;;;;;;;14.79;70.63;100385.28;5015936;28;20049;-80
2023/05/10 03:57:14;;;;;;;2.20;1.80;;;;;;;14.91;70.33;100377.03;5009031;28;20037;-80
2023/05/10 04:00:09;;;;;;;7.70;1.70;;;;;;;14.89;69.56;100388.31;5030615;28;20041;-80
2023/05/10 04:03:10;;;;;;;2.40;1.95;;;;;;;14.79;70.47;100386.09;5011286;28;20276;-80
2023/05/10 04:06:07;;;;;;;3.63;1.73;;;;;;;14.91;69.50;100388.75;5022421;28;20049;-80
2023/05/10 04:09:03;;;;;;;2.53;1.98;;;;;;;14.83;69.84;100375.25;5021068;28;20044;-80
2023/05/10 04:11:58;;;;;;;4.13;2.00;;;;;;;14.68;70.37;100378.75;5012355;28;20045;-79
2023/05/10 04:14:52;;;;;;;2.65;1.70;;;;;;;14.76;70.02;100380.53;5028433;28;20041;-80
2023/05/10 04:17:47;;;;;;;2.72;1.90;;;;;;;14.78;69.90;100378.25;5032787;28;20405;-79
2023/05/10 04:20:41;;;;;;;4.27;2.00;;;;;;;14.82;69.90;100382.66;5020370;28;20044;-80
2023/05/10 04:23:36;;;;;;;3.15;2.10;;;;;;;14.78;70.31;100383.72;5012585;28;20044;-80
2023/05/10 04:26:31;;;;;;;3.15;1.90;;;;;;;14.90;69.86;100378.97;5025749;28;20045;-80
2023/05/10 04:29:25;;;;;;;2.13;1.73;;;;;;;14.93;69.93;100377.47;5019119;28;20413;-79
2023/05/10 04:32:20;;;;;;;3.17;1.95;;;;;;;14.94;69.62;100370.81;5016956;28;20045;-80
2023/05/10 04:35:14;;;;;;;2.72;2.15;;;;;;;14.98;68.83;100382.69;5023754;28;20060;-80
2023/05/10 04:38:06;;;;;;;3.50;2.45;;;;;;;14.83;69.80;100380.72;5020582;28;20045;-81
2023/05/10 04:41:06;;;;;;;2.85;1.83;;;;;;;14.50;70.41;100390.03;5016636;28;20054;-81
2023/05/10 04:44:01;;;;;;;21.67;2.00;;;;;;;14.52;71.04;100390.47;5026040;28;20057;-81
2023/05/10 04:46:55;;;;;;;5.13;2.10;;;;;;;14.46;71.57;100389.13;5010743;28;20046;-81
2023/05/10 04:49:48;;;;;;;2.10;1.25;;;;;;;14.57;71.24;100385.88;5017023;28;20046;-81
2023/05/10 04:52:42;;;;;;;3.10;1.90;;;;;;;14.54;70.90;100390.91;5023115;28;20049;-81
2023/05/10 04:55:36;;;;;;;5.40;2.10;;;;;;;14.49;71.49;100384.88;5024577;28;20052;-80
2023/05/10 04:58:29;;;;;;;2.72;1.67;;;;;;;14.38;71.33;100384.59;5014482;28;20045;-80
2023/05/10 05:01:22;;;;;;;2.65;1.80;;;;;;;14.29;71.69;100388.59;5017708;28;20045;-80
2023/05/10 05:04:17;;;;;;;3.75;1.88;;;;;;;14.31;72.35;100392.59;5004359;28;20061;-81
2023/05/10 05:07:12;;;;;;;3.00;1.90;;;;;;;14.19;73.00;100389.88;5015530;28;20045;-82
2023/05/10 05:10:06;;;;;;;4.15;1.92;;;;;;;14.07;73.32;100385.25;5014619;28;20049;-80
2023/05/10 05:13:01;;;;;;;3.25;2.15;;;;;;;14.06;74.40;100391.88;5035710;28;20049;-81
2023/05/10 05:15:53;;;;;;;4.90;2.13;;;;;;;14.15;74.16;100389.00;5002022;28;20046;-80
2023/05/10 05:18:45;;;;;;;3.97;2.03;;;;;;;14.08;74.32;100386.03;5012594;28;20068;-80
2023/05/10 05:21:35;;;;;;;5.72;2.50;;;;;;;14.08;74.08;100386.84;5019973;28;20432;-78
2023/05/10 05:24:29;;;;;;;3.33;2.58;;;;;;;14.21;73.84;100387.59;5009055;28;20049;-80
2023/05/10 05:27:24;;;;;;;4.90;2.40;;;;;;;14.29;73.76;100381.19;5020492;28;20056;-81
2023/05/10 05:30:18;;;;;;;4.47;2.33;;;;;;;14.49;72.76;100382.16;5007798;28;20303;-81
2023/05/10 05:33:11;;;;;;;3.28;2.05;;;;;;;14.44;73.04;100376.94;5018709;28;20061;-80
2023/05/10 05:36:05;;;;;;;5.00;2.00;;;;;;;14.53;72.22;100372.09;5018217;28;20045;-80
2023/05/10 05:38:59;;;;;;;3.25;2.25;;;;;;;14.57;71.69;100372.22;5016131;28;20061;-81
2023/05/10 05:41:52;;;;;;;3.65;2.17;;;;;;;14.55;72.06;100381.56;5018920;28;20048;-80
2023/05/10 05:44:43;;;;;;;5.72;2.38;;;;;;;14.42;71.49;100382.78;5029456;28;20048;-82
2023/05/10 05:47:38;;;;;;;7.25;2.15;;;;;;;14.55;71.58;100383.50;5028050;28;20045;-82
2023/05/10 05:50:33;;;;;;;3.97;2.08;;;;;;;14.49;72.00;100382.16;5025334;28;20053;-82
2023/05/10 05:53:27;;;;;;;2.28;1.80;;;;;;;14.44;72.30;100390.59;5019956;28;20053;-80
2023/05/10 05:56:17;;;;;;;5.28;2.20;;;;;;;14.57;71.52;100385.88;5016734;28;20053;-81
2023/05/10 05:59:11;;;;;;;3.30;1.92;;;;;;;14.60;71.65;100382.44;5017775;28;20048;-79
2023/05/10 06:02:06;;;;;;;4.18;2.08;;;;;;;14.49;71.95;100382.94;5031681;28;20049;-77
2023/05/10 06:05:01;;;;;;;4.32;1.60;;;;;;;14.37;72.74;100388.50;5014603;28;20052;-79
2023/05/10 06:07:55;;;;;;;2.83;2.00;;;;;;;14.42;71.58;100381.97;5014481;28;20049;-78
2023/05/10 06:10:45;;;;;;;3.73;1.70;;;;;;;14.43;71.48;100389.00;5011907;28;20045;-76
2023/05/10 06:13:39;;;;;;;3.45;1.65;;;;;;;14.35;72.06;100392.69;5006052;28;20045;-77
2023/05/10 06:16:34;;;;;;;2.15;1.75;;;;;;;14.38;72.02;100392.78;5013456;28;20037;-77
2023/05/10 06:19:26;;;;;;;4.63;1.42;;;;;;;14.36;71.28;100392.38;5015673;28;20044;-77
2023/05/10 06:22:24;;;;;;;2.53;1.75;;;;;;;14.53;69.50;100389.31;5069752;23;20050;-78
2023/05/10 06:25:27;;;;;;;2.00;1.60;;;;;;;14.69;69.40;100383.88;4995671;28;20050;-77
2023/05/10 06:28:16;;;;;;;4.00;1.58;;;;;;;14.69;69.29;100383.06;4992873;28;20045;-78
2023/05/10 06:31:11;;;;;;;6.18;1.83;;;;;;;14.64;69.41;100388.81;5005508;28;20062;-78
2023/05/10 06:34:06;;;;;;;2.53;1.58;;;;;;;14.59;68.35;100387.13;4972961;28;20052;-78
2023/05/10 06:36:58;;;;;;;1.75;1.50;;;;;;;14.75;68.17;100387.16;4989020;28;20065;-77
2023/05/10 06:39:50;;;;;;;2.83;1.42;;;;;;;14.61;67.67;100382.09;4972875;28;20528;-78
2023/05/10 06:42:44;;;;;;;3.10;1.17;;;;;;;14.49;67.63;100382.94;4977475;28;20525;-78
2023/05/10 06:45:31;;;;;;;4.28;1.10;;;;;;;14.61;67.28;100392.25;4984876;28;20049;-82
2023/05/10 06:48:26;;;;;;;3.47;1.13;;;;;;;14.54;67.70;100395.56;4993033;28;20066;-81
2023/05/10 06:51:21;;;;;;;5.60;1.00;;;;;;;14.51;67.13;100397.09;4978998;28;20041;-80
2023/05/10 06:54:15;;;;;;;4.47;1.95;;;;;;;14.38;67.24;100401.00;4983889;28;20050;-80
2023/05/10 06:57:10;;;;;;;4.93;1.83;;;;;;;14.30;67.55;100401.94;4989282;28;20045;-83
2023/05/10 07:00:05;;;;;;;9.93;1.20;;;;;;;14.41;67.16;100397.59;4996333;28;20049;-82
2023/05/10 07:03:00;;;;;;;1.23;1.08;;;;;;;14.44;68.39;100407.81;4983084;28;20054;-84
2023/05/10 07:05:55;;;;;;;2.65;1.30;;;;;;;14.38;67.41;100409.22;4988278;28;20061;-81
2023/05/10 07:08:49;;;;;;;1.87;1.17;;;;;;;14.36;67.49;100406.03;4974967;28;20414;-82
2023/05/10 07:11:44;;;;;;;3.97;1.23;;;;;;;14.46;67.27;100412.94;4978125;28;20269;-81
2023/05/10 07:14:38;;;;;;;3.20;2.07;;;;;;;14.36;67.42;100406.03;4992849;28;20524;-80
2023/05/10 07:17:33;;;;;;;1.77;1.37;;;;;;;14.30;68.56;100404.66;4999036;28;20046;-82
2023/05/10 07:20:27;;;;;;;4.30;1.70;;;;;;;14.26;69.39;100409.25;4980727;28;20293;-82
2023/05/10 07:23:22;;;;;;;1.48;1.20;;;;;;;14.16;70.27;100412.47;4993480;28;20042;-80
2023/05/10 07:26:17;;;;;;;6.70;2.30;;;;;;;13.97;70.57;100412.25;4983528;28;20061;-85
2023/05/10 07:29:07;;;;;;;3.20;1.70;;;;;;;14.66;70.83;100417.44;5008528;28;20053;-78
2023/05/10 07:31:59;;;;;;;2.05;1.67;;;;;;;14.88;70.46;100418.81;4994341;28;20045;-79
2023/05/10 07:34:51;;;;;;;8.38;2.00;;;;;;;15.20;68.86;100423.13;4994497;28;20057;-79
2023/05/10 07:37:45;;;;;;;6.20;1.70;;;;;;;15.29;67.94;100423.75;5004851;28;20042;-78
2023/05/10 07:40:39;;;;;;;4.28;2.03;;;;;;;15.61;67.70;100426.50;4996411;28;20544;-79
2023/05/10 07:43:34;;;;;;;2.60;1.50;;;;;;;15.70;64.90;100441.59;4996723;28;20057;-77
2023/05/10 07:46:29;;;;;;;2.40;1.40;;;;;;;15.58;65.61;100433.50;4990163;28;20045;-79
2023/05/10 07:49:24;;;;;;;6.63;1.55;;;;;;;15.41;66.32;100431.88;4968968;28;20058;-79
2023/05/10 07:52:18;;;;;;;6.35;1.90;;;;;;;15.34;67.26;100439.91;4978099;28;20046;-79
2023/05/10 07:55:14;;;;;;;1.50;1.27;;;;;;;15.47;66.50;100440.63;4990564;28;20049;-77
2023/05/10 07:58:03;;;;;;;;;;;;;;;15.46;66.82;100451.94;4992133;28;20297;-81
2023/05/10 08:00:53;;;;;;;3.22;1.73;;;;;;;15.28;66.48;100448.78;5011012;28;19914;-78
2023/05/10 08:03:47;;;;;;;1.63;1.40;;;;;;;15.36;67.49;100459.56;5004951;28;20065;-80
2023/05/10 08:06:42;;;;;;;3.60;1.70;;;;;;;15.69;67.66;100461.19;4988355;28;20038;-79
2023/05/10 08:09:35;;;;;;;3.80;1.60;;;;;;;15.64;64.87;100454.03;4988969;28;20053;-79
2023/05/10 08:12:27;;;;;;;2.58;1.98;;;;;;;15.54;66.44;100459.25;5008992;28;20045;-78
2023/05/10 08:15:21;;;;;;;3.58;1.80;;;;;;;15.50;66.22;100461.84;4992846;28;20125;-78
2023/05/10 08:18:16;;;;;;;5.22;2.10;;;;;;;15.36;68.50;100470.50;4978973;28;20413;-78
2023/05/10 08:21:11;;;;;;;4.63;1.52;;;;;;;15.45;66.77;100461.31;5008352;28;20049;-77
2023/05/10 08:24:01;;;;;;;3.55;2.17;;;;;;;15.30;67.13;100471.91;4995822;28;20058;-78
2023/05/10 08:26:53;;;;;;;2.75;1.42;;;;;;;14.93;70.29;100462.34;4986530;28;20049;-77
2023/05/10 08:29:45;;;;;;;2.92;1.88;;;;;;;15.13;69.51;100466.00;4991692;28;20049;-78
2023/05/10 08:32:37;;;;;;;3.67;1.48;;;;;;;15.30;69.91;100469.19;5006882;28;20069;-79
2023/05/10 08:35:32;;;;;;;2.58;1.42;;;;;;;15.32;68.69;100472.38;4992392;28;20532;-78
2023/05/10 08:38:27;;;;;;;8.02;1.77;;;;;;;15.63;67.90;100479.03;4976265;28;20049;-77
2023/05/10 08:41:21;;;;;;;4.57;2.00;;;;;;;15.99;68.50;100481.47;4983056;28;20038;-77
2023/05/10 08:44:18;;;;;;;3.35;1.52;;;;;;;16.01;68.36;100476.41;4990264;28;20041;-79
2023/05/10 08:47:13;;;;;;;3.67;1.35;;;;;;;16.00;67.21;100477.56;4990354;28;20045;-77
2023/05/10 08:50:08;;;;;;;3.72;1.50;;;;;;;15.59;68.27;100480.91;4985403;28;20548;-76
2023/05/10 08:53:02;;;;;;;3.97;1.95;;;;;;;15.64;69.49;100481.44;4982276;28;20046;-77
2023/05/10 08:55:55;;;;;;;1.83;1.40;;;;;;;16.52;66.67;100479.06;4991750;28;20053;-76
2023/05/10 08:58:50;;;;;;;2.60;1.95;;;;;;;15.88;67.99;100482.38;4993858;28;20037;-76
2023/05/10 09:01:42;;;;;;;5.20;2.53;;;;;;;15.80;68.23;100489.63;4976316;28;20058;-77
2023/05/10 09:04:37;;;;;;;5.03;1.70;;;;;;;15.75;67.45;100484.41;5000111;28;20045;-77
2023/05/10 09:07:32;;;;;;;2.80;1.45;;;;;;;15.64;68.32;100483.38;4990664;28;20041;-76
2023/05/10 09:10:27;;;;;;;5.20;2.22;;;;;;;15.76;67.03;100486.78;5003172;28;20050;-77
2023/05/10 09:13:23;;;;;;;4.30;1.67;;;;;;;15.53;67.79;100491.34;4998627;28;20065;-78
2023/05/10 09:16:16;;;;;;;2.05;1.63;;;;;;;15.66;67.70;100481.06;4996045;28;20042;-78
2023/05/10 09:19:10;;;;;;;3.80;1.88;;;;;;;15.91;67.74;100471.47;4998805;28;20062;-76
2023/05/10 09:22:06;;;;;;;2.08;1.73;;;;;;;15.89;67.36;100473.78;4992414;28;20041;-77
2023/05/10 09:25:13;;;;;;;2.50;1.60;;;;;;;16.00;66.30;100472.06;4991571;28;20045;-76
2023/05/10 09:28:10;;;;;;;2.47;1.63;;;;;;;15.93;67.53;100465.63;4997693;28;20517;-78
2023/05/10 09:31:05;;;;;;;5.00;1.50;;;;;;;15.90;66.96;100472.63;4994528;28;20068;-78
2023/05/10 09:33:55;;;;;;;4.60;2.00;;;;;;;16.07;68.21;100472.25;4995533;28;20045;-78
2023/05/10 09:37:03;;;;;;;2.42;1.50;;;;;;;16.12;65.81;100465.69;4994726;28;20520;-79
2023/05/10 09:39:57;;;;;;;4.07;1.55;;;;;;;15.97;66.33;100470.06;4994963;28;20045;-78
2023/05/10 09:43:05;;;;;;;2.50;1.65;;;;;;;16.11;65.62;100467.63;4978405;28;20050;-76
2023/05/10 09:45:57;;;;;;;2.08;1.42;;;;;;;16.02;67.06;100478.00;4996088;28;20053;-79
2023/05/10 09:48:52;;;;;;;2.80;1.73;;;;;;;16.13;66.71;100473.56;5011419;28;20065;-77
2023/05/10 09:51:46;;;;;;;2.20;1.45;;;;;;;15.96;65.27;100468.44;4997609;28;20049;-77
2023/05/10 09:54:47;;;;;;;2.63;1.60;;;;;;;16.09;65.93;100475.44;4997404;28;20049;-77
2023/05/10 09:57:39;;;;;;;2.17;1.27;;;;;;;16.08;65.99;100478.53;4992516;28;20041;-77
2023/05/10 10:00:39;;;;;;;2.10;1.60;;;;;;;15.99;66.14;100465.00;4995787;28;20053;-77
2023/05/10 10:03:31;;;;;;;2.17;1.30;;;;;;;15.95;68.59;100469.59;4991851;28;20045;-77
2023/05/10 10:06:26;;;;;;;4.43;2.22;;;;;;;16.01;68.09;100456.41;4987391;28;20516;-76
2023/05/10 10:09:18;;;;;;;2.08;1.50;;;;;;;16.21;66.67;100461.56;4982129;28;20413;-77
2023/05/10 10:12:12;;;;;;;2.53;1.35;;;;;;;16.29;66.92;100456.25;5002146;28;20049;-77
2023/05/10 10:15:08;;;;;;;3.00;1.33;;;;;;;16.02;68.04;100464.28;5001006;28;20402;-77
2023/05/10 10:18:03;;;;;;;4.68;1.73;;;;;;;16.13;66.54;100457.09;4993248;28;20049;-75
2023/05/10 10:20:58;;;;;;;4.70;1.70;;;;;;;16.01;67.46;100454.47;5004949;28;20050;-77
2023/05/10 10:23:51;;;;;;;2.03;1.30;;;;;;;16.24;66.58;100457.31;4985086;28;20061;-77
2023/05/10 10:26:42;;;;;;;3.50;2.00;;;;;;;16.34;65.91;100456.75;4997645;28;20045;-78
2023/05/10 10:29:52;;;;;;;4.97;1.63;;;;;;;16.10;68.25;100460.53;5001505;28;20049;-79
2023/05/10 10:33:11;;;;;;;5.32;1.98;;;;;;;15.93;67.49;100458.22;4994544;28;20049;-78
2023/05/10 10:36:04;;;;;;;6.25;1.77;;;;;;;15.83;68.31;100458.75;5000379;28;20048;-77
2023/05/10 10:39:10;;;;;;;3.22;1.88;;;;;;;15.57;70.41;100450.31;4984957;28;20179;-78
2023/05/10 10:42:03;;;;;;;4.03;2.60;;;;;;;15.79;69.70;100457.88;4992636;28;20037;-76
2023/05/10 10:45:15;;;;;;;2.70;1.65;;;;;;;15.99;68.58;100451.31;4982510;28;20057;-76
2023/05/10 10:48:26;;;;;;;3.67;1.50;;;;;;;15.71;68.11;100451.44;4991769;28;20065;-76
2023/05/10 10:51:18;;;;;;;3.90;1.90;;;;;;;14.80;71.54;100450.66;4991193;28;20418;-76
2023/05/10 10:54:31;;;;;;;3.90;1.98;;;;;;;14.73;73.03;100447.72;4985660;28;20041;-76
2023/05/10 10:57:26;;;;;;;3.67;1.77;;;;;;;15.27;70.91;100447.19;4995861;28;20041;-75
2023/05/10 11:00:34;;;;;;;7.68;1.98;;;;;;;14.71;73.24;100438.28;4980234;28;20045;-77
2023/05/10 11:03:28;;;;;;;5.20;1.80;;;;;;;14.55;73.41;100430.00;4996168;28;20069;-77
2023/05/10 11:06:33;;;;;;;2.10;1.90;;;;;;;14.63;74.39;100436.50;4979772;28;20046;-77
2023/05/10 11:09:26;;;;;;;5.10;1.70;;;;;;;15.11;70.36;100436.22;5010095;28;20061;-78
2023/05/10 11:12:20;;;;;;;3.97;1.70;;;;;;;15.36;70.06;100432.16;4986474;28;20045;-79
2023/05/10 11:15:15;;;;;;;2.15;1.60;;;;;;;14.89;69.84;100423.09;4992469;28;20053;-77
2023/05/10 11:18:28;;;;;;;4.13;1.67;;;;;;;14.92;71.28;100422.41;4975635;28;20713;-77
2023/05/10 11:21:20;;;;;;;3.97;1.80;;;;;;;15.16;71.45;100425.00;4996092;28;20045;-76
2023/05/10 11:24:18;;;;;;;1.95;1.60;;;;;;;15.30;71.18;100424.56;4992371;28;20045;-77
2023/05/10 11:27:13;;;;;;;8.50;2.10;;;;;;;15.41;70.57;100415.44;5008611;28;20053;-77
2023/05/10 11:30:07;;;;;;;5.47;1.48;;;;;;;15.37;70.42;100417.31;5014362;28;20045;-77
2023/05/10 11:32:57;;;;;;;6.68;2.30;;;;;;;15.72;69.41;100420.13;5010272;28;20045;-77
2023/05/10 11:35:51;;;;;;;4.53;2.03;;;;;;;15.66;69.57;100423.50;4988970;28;20061;-77
2023/05/10 11:38:46;;;;;;;3.92;2.55;;;;;;;15.69;69.88;100425.53;4996012;28;20057;-76
2023/05/10 11:41:41;;;;;;;4.50;1.77;;;;;;;15.28;70.25;100427.66;4983254;28;20049;-77
2023/05/10 11:44:36;;;;;;;2.10;1.63;;;;;;;15.05;70.84;100423.94;5009082;28;20049;-76
2023/05/10 11:47:28;;;;;;;3.80;2.05;;;;;;;15.05;72.46;100428.59;4998369;28;20041;-75
2023/05/10 11:50:22;;;;;;;3.83;2.23;;;;;;;14.98;71.82;100426.50;4996644;28;20122;-77
2023/05/10 11:53:17;;;;;;;4.70;2.03;;;;;;;14.78;72.35;100422.06;5012593;28;20050;-77
2023/05/10 11:56:12;;;;;;;1.80;1.55;;;;;;;14.70;73.92;100433.94;5006603;28;20045;-77
2023/05/10 11:59:08;;;;;;;2.22;1.52;;;;;;;14.75;73.79;100429.00;4993767;28;20053;-78
2023/05/10 12:02:01;;;;;;;2.60;1.70;;;;;;;15.11;72.21;100430.75;4982581;28;20049;-77
2023/05/10 12:04:53;;;;;;;2.55;2.08;;;;;;;15.38;71.84;100438.09;4981196;28;20045;-78
2023/05/10 12:07:48;;;;;;;4.00;2.40;;;;;;;14.80;74.38;100430.69;4997355;28;20057;-83
2023/05/10 12:10:42;;;;;;;4.23;2.60;;;;;;;14.99;74.39;100431.59;5002058;28;20042;-78
2023/05/10 12:13:39;;;;;;;3.27;1.90;;;;;;;14.77;73.67;100447.81;4997219;28;20057;-77
2023/05/10 12:16:33;;;;;;;4.95;2.83;;;;;;;14.63;75.55;100436.50;4990545;28;20317;-77
2023/05/10 12:19:28;;;;;;;2.90;2.40;;;;;;;14.57;74.87;100433.22;4986708;28;20049;-77
2023/05/10 12:22:22;;;;;;;2.70;1.38;;;;;;;14.64;76.08;100443.53;5050156;23;20056;-78
2023/05/10 12:25:16;;;;;;;3.70;1.63;;;;;;;14.70;74.26;100445.69;5053849;28;20052;-78
2023/05/10 12:28:10;;;;;;;3.45;2.05;;;;;;;14.89;74.18;100439.53;5044644;28;20040;-78
2023/05/10 12:31:07;;;;;;;4.30;1.90;;;;;;;15.04;74.37;100446.97;5031039;28;20057;-78
2023/05/10 12:33:59;;;;;;;2.92;2.25;;;;;;;15.21;73.17;100438.44;5013718;28;20563;-77
2023/05/10 12:36:55;;;;;;;6.10;2.22;;;;;;;15.39;73.42;100447.88;5015341;28;20045;-78
2023/05/10 12:39:50;;;;;;;3.05;1.90;;;;;;;15.54;71.95;100440.84;5044111;28;20045;-78
2023/05/10 12:42:44;;;;;;;8.73;2.40;;;;;;;15.62;71.79;100448.09;5021578;28;20540;-77
2023/05/10 12:45:36;;;;;;;5.00;2.17;;;;;;;15.68;72.83;100445.88;5034857;28;20061;-77
2023/05/10 12:48:28;;;;;;;3.85;2.10;;;;;;;15.51;73.09;100448.94;5034905;28;20424;-78
2023/05/10 12:51:22;;;;;;;2.50;1.83;;;;;;;15.54;71.93;100451.03;5025206;28;20057;-78
2023/05/10 12:54:14;;;;;;;4.40;2.38;;;;;;;15.51;73.01;100447.03;5032241;28;20068;-77
2023/05/10 12:57:07;;;;;;;4.95;2.28;;;;;;;15.61;72.34;100449.22;5019515;28;20056;-78
2023/05/10 12:59:59;;;;;;;3.92;1.98;;;;;;;15.61;71.68;100443.75;5031137;28;20048;-78
2023/05/10 13:02:54;;;;;;;5.22;2.35;;;;;;;15.74;71.84;100447.19;5017701;28;20057;-78
2023/05/10 13:05:48;;;;;;;2.60;1.75;;;;;;;15.54;73.38;100442.78;5019373;28;20056;-78
2023/05/10 13:08:43;;;;;;;2.15;1.50;;;;;;;15.74;73.28;100442.50;5037772;28;20417;-77
2023/05/10 13:11:37;;;;;;;2.83;2.10;;;;;;;15.82;73.01;100446.19;5022706;28;20049;-77
2023/05/10 13:14:29;;;;;;;2.78;2.38;;;;;;;15.93;72.84;100449.97;5026988;28;20075;-78
2023/05/10 13:17:24;;;;;;;4.07;2.70;;;;;;;15.91;72.83;100443.25;5041169;28;20041;-78
2023/05/10 13:20:18;;;;;;;2.42;2.22;;;;;;;15.98;72.26;100440.69;5019931;28;20052;-78
2023/05/10 13:23:08;;;;;;;5.32;2.65;;;;;;;15.70;74.35;100438.06;5030195;28;20519;-77
2023/05/10 13:26:00;;;;;;;4.90;2.50;;;;;;;15.25;75.33;100438.50;5036494;28;20052;-77
2023/05/10 13:28:55;;;;;;;2.20;1.60;;;;;;;15.25;75.79;100430.28;5037103;28;20056;-77
2023/05/10 13:31:50;;;;;;;3.50;2.55;;;;;;;15.44;76.33;100432.34;5036523;28;20399;-78
2023/05/10 13:34:42;;;;;;;11.65;9.02;;;;;;;15.47;76.75;100426.13;5034936;28;20048;-78